Time;durP1;ratioP1;P1;durP2;ratioP2;P2;SDS_P1;SDS_P2;PMS_P1;PMS_P2;Temp;Humidity;BMP_temperature;BMP_pressure;BME280_temperature;BME280_humidity;BME280_pressure;Samples;Min_cycle;Max_cycle;Signal;HPM_P1;HPM_P2
2021/08/06 05:58:25;;;;;;;1.42;1.42;;;;;;;13.66;100.00;97195.94;2346635;76;22111;-90
2021/08/06 06:01:26;;;;;;;1.90;0.80;;;;;;;13.68;100.00;97203.06;2315729;77;21023;-90
2021/08/06 06:04:27;;;;;;;0.72;0.70;;;;;;;13.80;100.00;97201.17;2315924;77;21004;-90
2021/08/06 06:07:28;;;;;;;1.10;0.60;;;;;;;13.93;100.00;97198.26;2316063;77;21626;-90
2021/08/06 06:10:29;;;;;;;0.40;0.40;;;;;;;14.08;100.00;97196.90;2316272;77;20952;-90
2021/08/06 06:13:30;;;;;;;1.55;0.55;;;;;;;14.22;100.00;97201.63;2316251;77;21524;-90
2021/08/06 06:16:30;;;;;;;0.85;0.85;;;;;;;14.33;100.00;97209.16;2316256;77;20968;-91
2021/08/06 06:19:31;;;;;;;0.53;0.53;;;;;;;14.43;100.00;97207.20;2316369;77;20980;-91
2021/08/06 06:22:32;;;;;;;0.42;0.42;;;;;;;14.50;100.00;97218.41;2316235;77;21071;-93
2021/08/06 06:25:33;;;;;;;0.37;0.30;;;;;;;14.56;100.00;97221.41;2316079;77;20961;-91
2021/08/06 06:28:34;;;;;;;0.57;0.57;;;;;;;14.63;100.00;97220.73;2315825;77;21471;-85
2021/08/06 06:31:34;;;;;;;0.40;0.35;;;;;;;14.69;100.00;97217.63;2315532;77;20958;-85
2021/08/06 06:34:35;;;;;;;1.17;0.40;;;;;;;14.70;100.00;97217.91;2315624;77;20941;-85
2021/08/06 06:37:36;;;;;;;0.60;0.40;;;;;;;14.74;100.00;97235.63;2315656;77;21484;-84
2021/08/06 06:40:37;;;;;;;0.95;0.33;;;;;;;14.78;100.00;97231.98;2315756;77;21009;-85
2021/08/06 06:43:38;;;;;;;0.90;0.50;;;;;;;14.83;100.00;97228.64;2315906;77;20941;-85
2021/08/06 06:46:38;;;;;;;0.60;0.50;;;;;;;14.85;100.00;97232.62;2316168;77;21495;-88
2021/08/06 06:49:39;;;;;;;0.65;0.50;;;;;;;14.93;100.00;97234.05;2316269;77;20953;-88
2021/08/06 06:52:40;;;;;;;0.35;0.30;;;;;;;14.97;100.00;97233.83;2315760;77;20992;-89
2021/08/06 06:55:41;;;;;;;1.70;0.45;;;;;;;15.01;100.00;97241.02;2315548;77;21444;-90
2021/08/06 06:58:42;;;;;;;1.37;1.15;;;;;;;15.07;100.00;97249.25;2284742;77;21056;-88
2021/08/06 07:01:42;;;;;;;0.40;0.40;;;;;;;15.10;100.00;97239.28;2315759;77;20953;-90
2021/08/06 07:04:43;;;;;;;0.80;0.42;;;;;;;15.17;100.00;97249.11;2316111;77;20973;-90
2021/08/06 07:07:44;;;;;;;4.47;0.88;;;;;;;15.17;100.00;97251.75;2315660;77;21021;-90
2021/08/06 07:10:45;;;;;;;0.62;0.60;;;;;;;15.18;100.00;97258.12;2315383;77;21016;-90
2021/08/06 07:13:46;;;;;;;0.60;0.60;;;;;;;15.23;100.00;97254.21;2316002;77;20941;-90
2021/08/06 07:16:46;;;;;;;1.07;1.05;;;;;;;15.21;100.00;97260.25;2314973;77;21115;-90
2021/08/06 07:19:47;;;;;;;0.82;0.45;;;;;;;15.19;100.00;97261.02;2315601;77;20980;-89
2021/08/06 07:22:48;;;;;;;0.70;0.70;;;;;;;15.16;100.00;97258.86;2316801;77;21053;-89
2021/08/06 07:25:49;;;;;;;1.27;0.57;;;;;;;15.15;100.00;97269.12;2318274;77;21036;-91
2021/08/06 07:28:50;;;;;;;0.82;0.82;;;;;;;15.13;100.00;97265.15;2315611;77;20992;-91
2021/08/06 07:31:50;;;;;;;2.87;0.90;;;;;;;15.11;100.00;97275.14;2315370;77;21024;-88
2021/08/06 07:34:51;;;;;;;0.62;0.47;;;;;;;14.98;100.00;97273.11;2315357;77;21004;-90
2021/08/06 07:37:52;;;;;;;0.90;0.90;;;;;;;15.03;100.00;97269.77;2284934;77;21047;-87
2021/08/06 07:40:54;;;;;;;0.60;0.60;;;;;;;15.05;100.00;97280.86;2314666;77;21530;-87
2021/08/06 07:43:55;;;;;;;0.78;0.50;;;;;;;15.07;100.00;97282.20;2314700;77;21498;-87
2021/08/06 07:46:56;;;;;;;1.02;0.95;;;;;;;15.03;100.00;97276.35;2315363;77;21060;-92
2021/08/06 07:49:57;;;;;;;0.68;0.68;;;;;;;14.97;100.00;97280.74;2316640;77;20945;-91
2021/08/06 07:52:58;;;;;;;0.60;0.60;;;;;;;14.94;100.00;97293.09;2317208;77;21000;-93
2021/08/06 07:55:58;;;;;;;1.65;0.90;;;;;;;14.96;100.00;97304.19;2315511;77;21044;-89
2021/08/06 07:58:59;;;;;;;2.58;1.00;;;;;;;14.96;100.00;97312.61;2302129;77;20938;-90
2021/08/06 08:02:00;;;;;;;6.85;1.80;;;;;;;14.96;100.00;97313.41;2302243;77;20927;-92
2021/08/06 08:05:01;;;;;;;1.40;1.30;;;;;;;14.94;100.00;97316.81;2302234;77;21034;-91
2021/08/06 08:08:02;;;;;;;1.15;1.10;;;;;;;14.92;100.00;97320.22;2275817;77;20978;-91
2021/08/06 08:11:02;;;;;;;3.08;1.10;;;;;;;14.91;100.00;97319.14;2301715;77;21002;-90
2021/08/06 08:14:03;;;;;;;1.80;1.10;;;;;;;14.92;100.00;97326.80;2301943;77;21015;-90
2021/08/06 08:17:04;;;;;;;1.20;1.20;;;;;;;14.89;100.00;97333.85;2303300;77;20966;-93
2021/08/06 08:20:05;;;;;;;1.52;1.20;;;;;;;14.88;100.00;97329.62;2301610;77;20991;-91
2021/08/06 08:23:06;;;;;;;1.22;1.22;;;;;;;14.88;100.00;97329.62;2301684;77;20974;-89
2021/08/06 08:26:07;;;;;;;1.85;1.25;;;;;;;14.90;100.00;97322.79;2302554;77;20900;-87
2021/08/06 08:29:07;;;;;;;1.17;1.17;;;;;;;14.89;100.00;97344.91;2301568;77;21442;-91
2021/08/06 08:32:08;;;;;;;1.57;1.42;;;;;;;14.94;100.00;97341.85;2301760;77;21453;-91
2021/08/06 08:35:09;;;;;;;2.20;2.02;;;;;;;14.97;100.00;97353.74;2301864;77;21103;-91
2021/08/06 08:38:10;;;;;;;1.50;1.40;;;;;;;14.96;100.00;97346.88;2275268;77;20997;-90
2021/08/06 08:41:11;;;;;;;1.70;1.40;;;;;;;15.00;100.00;97357.23;2301742;77;21004;-89
2021/08/06 08:44:11;;;;;;;1.22;1.22;;;;;;;15.03;100.00;97352.79;2301305;77;21276;-85
2021/08/06 08:47:13;;;;;;;2.27;1.17;;;;;;;15.06;100.00;97358.89;2301100;77;20970;-86
2021/08/06 08:50:15;;;;;;;1.65;1.55;;;;;;;15.10;100.00;97364.50;2301391;77;21066;-86
2021/08/06 08:53:15;;;;;;;1.42;1.32;;;;;;;15.14;100.00;97366.39;2302094;77;21403;-88
2021/08/06 08:56:33;;;;;;;1.75;1.65;;;;;;;15.16;100.00;97367.47;2299677;76;21002;-85
2021/08/06 08:59:34;;;;;;;1.15;1.05;;;;;;;15.16;100.00;97357.72;2283695;78;21039;-88
2021/08/06 09:02:38;;;;;;;1.57;1.37;;;;;;;15.11;100.00;97362.94;2283947;77;21035;-87
2021/08/06 09:05:39;;;;;;;1.30;1.30;;;;;;;15.15;100.00;97375.90;2282526;77;21032;-86
2021/08/06 09:08:42;;;;;;;1.37;1.27;;;;;;;15.12;100.00;97368.48;2283981;77;21507;-90
2021/08/06 09:11:43;;;;;;;1.40;1.30;;;;;;;15.14;100.00;97379.58;2283178;77;20917;-89
2021/08/06 09:14:46;;;;;;;1.90;1.80;;;;;;;15.14;100.00;97390.64;2283065;78;21064;-83
2021/08/06 09:17:48;;;;;;;1.55;1.55;;;;;;;15.15;100.00;97387.76;2283009;77;20996;-82
2021/08/06 09:20:49;;;;;;;3.00;2.70;;;;;;;15.14;100.00;97391.44;2283176;77;21526;-83
2021/08/06 09:23:49;;;;;;;2.85;2.65;;;;;;;15.19;100.00;97396.01;2282672;77;21043;-82
2021/08/06 09:26:50;;;;;;;4.67;4.22;;;;;;;15.20;100.00;97397.60;2283147;77;20990;-80
2021/08/06 09:29:51;;;;;;;2.40;2.20;;;;;;;15.17;100.00;97398.06;2283530;78;20925;-84
2021/08/06 09:32:52;;;;;;;2.22;2.00;;;;;;;15.16;100.00;97406.49;2283045;77;21011;-82
2021/08/06 09:35:55;;;;;;;2.75;2.20;;;;;;;15.17;100.00;97419.95;2280881;78;20973;-83
2021/08/06 09:38:55;;;;;;;2.30;1.80;;;;;;;15.15;100.00;97406.22;2283452;77;21087;-83
2021/08/06 09:41:59;;;;;;;1.60;1.50;;;;;;;15.13;100.00;97406.98;2283450;78;20976;-83
2021/08/06 09:45:00;;;;;;;1.65;1.52;;;;;;;15.20;100.00;97419.48;2283520;77;20972;-83
2021/08/06 09:48:01;;;;;;;2.02;1.92;;;;;;;15.20;100.00;97422.65;2283271;78;20948;-83
2021/08/06 09:51:04;;;;;;;1.90;1.80;;;;;;;15.24;100.00;97423.75;2283337;77;21056;-82
2021/08/06 09:54:05;;;;;;;1.45;1.32;;;;;;;15.28;100.00;97420.41;2283285;77;20964;-84
2021/08/06 09:57:06;;;;;;;2.12;1.62;;;;;;;15.28;100.00;97425.69;2291238;77;21519;-82
2021/08/06 10:00:07;;;;;;;2.33;1.62;;;;;;;15.37;100.00;97423.45;2314697;77;20945;-82
2021/08/06 10:03:08;;;;;;;1.67;1.50;;;;;;;15.46;100.00;97428.59;2314815;77;20929;-82
2021/08/06 10:06:09;;;;;;;1.82;1.72;;;;;;;15.54;100.00;97428.67;2314627;77;20996;-83
2021/08/06 10:09:10;;;;;;;2.35;2.25;;;;;;;15.62;100.00;97437.01;2283679;77;20992;-82
2021/08/06 10:12:11;;;;;;;1.60;1.50;;;;;;;15.58;100.00;97446.95;2314684;77;21464;-83
2021/08/06 10:15:11;;;;;;;1.90;1.80;;;;;;;15.56;100.00;97445.08;2314592;77;21102;-83
2021/08/06 10:18:12;;;;;;;1.82;1.72;;;;;;;15.53;100.00;97448.19;2314802;77;21007;-83
2021/08/06 10:21:13;;;;;;;1.60;1.50;;;;;;;15.55;100.00;97452.72;2314646;77;20956;-84
2021/08/06 10:24:14;;;;;;;1.55;1.45;;;;;;;15.53;100.00;97446.86;2314707;77;21023;-83
2021/08/06 10:27:15;;;;;;;1.80;1.70;;;;;;;15.51;100.00;97440.52;2314719;77;20961;-84
2021/08/06 10:30:16;;;;;;;2.20;1.37;;;;;;;15.47;100.00;97454.44;2315393;77;21030;-84
2021/08/06 10:33:24;;;;;;;1.85;1.75;;;;;;;15.41;100.00;97468.58;2315958;77;20976;-84
2021/08/06 10:36:25;;;;;;;2.12;1.92;;;;;;;15.29;100.00;97463.40;2314585;77;20989;-83
2021/08/06 10:39:26;;;;;;;2.92;1.95;;;;;;;15.25;100.00;97470.17;2314785;77;21013;-83
2021/08/06 10:42:27;;;;;;;1.55;1.50;;;;;;;15.22;100.00;97479.37;2314730;77;20979;-83
2021/08/06 10:45:28;;;;;;;1.92;1.82;;;;;;;15.19;100.00;97485.65;2314937;77;21023;-84
2021/08/06 10:48:29;;;;;;;1.47;1.42;;;;;;;15.12;100.00;97492.38;2314872;77;21015;-84
2021/08/06 10:51:30;;;;;;;1.60;1.50;;;;;;;15.11;100.00;97486.83;2314989;77;21534;-84
2021/08/06 10:54:31;;;;;;;2.77;1.80;;;;;;;15.02;100.00;97494.33;2314797;77;20945;-80
2021/08/06 10:57:31;;;;;;;1.85;1.75;;;;;;;14.96;100.00;97480.77;2310504;77;21053;-82
2021/08/06 11:00:32;;;;;;;2.30;1.72;;;;;;;14.95;100.00;97500.78;2301531;77;20963;-82
2021/08/06 11:03:33;;;;;;;1.98;1.82;;;;;;;14.95;100.00;97507.37;2301321;77;21485;-85
2021/08/06 11:06:34;;;;;;;2.17;2.00;;;;;;;14.95;100.00;97502.09;2301210;77;21563;-84
2021/08/06 11:09:35;;;;;;;4.03;2.83;;;;;;;14.99;100.00;97512.44;2301172;77;20999;-83
2021/08/06 11:12:35;;;;;;;2.62;2.42;;;;;;;15.04;100.00;97504.11;2302149;77;21009;-85
2021/08/06 11:15:36;;;;;;;2.42;2.33;;;;;;;15.09;100.00;97513.95;2305397;77;20931;-83
2021/08/06 11:18:37;;;;;;;1.80;1.75;;;;;;;15.10;100.00;97510.80;2305896;77;21022;-86
2021/08/06 11:21:38;;;;;;;2.47;2.37;;;;;;;15.12;100.00;97509.52;2306599;77;20986;-82
2021/08/06 11:24:39;;;;;;;2.12;2.02;;;;;;;15.18;100.00;97511.22;2306271;77;21077;-83
2021/08/06 11:27:40;;;;;;;2.42;2.33;;;;;;;15.24;100.00;97516.84;2306384;77;20970;-84
2021/08/06 11:30:41;;;;;;;2.67;2.47;;;;;;;15.33;100.00;97515.92;2305927;77;21049;-85
2021/08/06 11:33:42;;;;;;;2.27;1.90;;;;;;;15.40;100.00;97517.09;2306440;77;21021;-84
2021/08/06 11:36:42;;;;;;;2.12;2.02;;;;;;;15.44;100.00;97519.53;2306635;77;21034;-84
2021/08/06 11:39:43;;;;;;;2.10;2.00;;;;;;;15.47;100.00;97523.83;2306760;77;20982;-85
2021/08/06 11:42:44;;;;;;;1.80;1.67;;;;;;;15.40;100.00;97516.58;2306497;77;20958;-87
2021/08/06 11:45:45;;;;;;;2.55;2.02;;;;;;;15.38;100.00;97514.70;2306749;77;20999;-88
2021/08/06 11:48:46;;;;;;;2.05;1.77;;;;;;;15.33;100.00;97522.52;2306220;77;20974;-87
2021/08/06 11:51:46;;;;;;;2.12;2.02;;;;;;;15.31;100.00;97524.60;2306788;77;21003;-89
2021/08/06 11:54:47;;;;;;;2.12;2.02;;;;;;;15.27;100.00;97516.37;2306601;77;20982;-88
2021/08/06 11:57:48;;;;;;;1.92;1.82;;;;;;;15.29;100.00;97524.05;2306049;77;20990;-87
2021/08/06 12:00:49;;;;;;;2.37;2.20;;;;;;;15.26;100.00;97520.03;2306279;77;20978;-87
2021/08/06 12:03:50;;;;;;;1.67;1.55;;;;;;;15.29;100.00;97526.16;2306100;77;21033;-87
2021/08/06 12:06:50;;;;;;;2.98;2.25;;;;;;;15.31;100.00;97535.16;2304431;77;21569;-88
2021/08/06 12:09:51;;;;;;;1.95;1.80;;;;;;;15.33;100.00;97543.09;2303507;77;21308;-89
2021/08/06 12:12:52;;;;;;;2.20;2.10;;;;;;;15.41;100.00;97539.80;2304526;77;21058;-89
2021/08/06 12:15:53;;;;;;;2.70;2.50;;;;;;;15.43;100.00;97531.91;2304037;77;21006;-88
2021/08/06 12:18:54;;;;;;;2.35;2.15;;;;;;;15.46;100.00;97546.48;2306530;77;20958;-88
2021/08/06 12:21:55;;;;;;;4.30;3.30;;;;;;;15.51;100.00;97543.91;2303740;77;20972;-86
2021/08/06 12:24:56;;;;;;;3.33;3.08;;;;;;;15.56;100.00;97546.13;2306294;77;20951;-84
2021/08/06 12:27:57;;;;;;;2.35;2.25;;;;;;;15.59;100.00;97553.55;2304997;77;21058;-82
2021/08/06 12:30:58;;;;;;;3.02;2.83;;;;;;;15.70;100.00;97549.27;2305177;77;21031;-82
2021/08/06 12:33:59;;;;;;;4.37;3.20;;;;;;;15.83;100.00;97556.08;2306096;77;20951;-85
2021/08/06 12:37:00;;;;;;;3.15;2.95;;;;;;;16.08;100.00;97560.91;2306463;77;21085;-83
2021/08/06 12:40:00;;;;;;;3.08;2.87;;;;;;;16.25;100.00;97551.12;2306238;77;20962;-82
2021/08/06 12:43:01;;;;;;;3.27;3.08;;;;;;;16.24;100.00;97557.45;2305307;77;20971;-84
2021/08/06 12:46:02;;;;;;;2.92;2.83;;;;;;;16.16;100.00;97548.09;2305550;77;21050;-85
2021/08/06 12:49:04;;;;;;;3.47;3.27;;;;;;;16.03;100.00;97555.05;2305628;77;20955;-81
2021/08/06 12:52:05;;;;;;;5.95;5.03;;;;;;;15.94;100.00;97560.45;2305387;77;21039;-82
2021/08/06 12:55:06;;;;;;;4.75;2.90;;;;;;;15.87;100.00;97559.81;2306324;77;20983;-85
2021/08/06 12:58:07;;;;;;;3.60;3.37;;;;;;;15.82;100.00;97559.76;2302108;77;21093;-84
2021/08/06 13:01:07;;;;;;;4.15;3.75;;;;;;;15.71;100.00;97574.61;2302265;77;20938;-84
2021/08/06 13:04:08;;;;;;;3.98;3.20;;;;;;;15.62;100.00;97580.00;2304824;77;20939;-82
2021/08/06 13:07:09;;;;;;;2.77;2.55;;;;;;;15.61;100.00;97592.91;2304124;77;21006;-82
2021/08/06 13:16:38;;;;;;;3.40;3.20;;;;;;;15.66;100.00;97606.73;2196911;81;21033;-84
2021/08/06 13:19:38;;;;;;;3.55;2.98;;;;;;;15.80;100.00;97608.00;2206219;81;21042;-82
2021/08/06 13:22:41;;;;;;;2.80;2.62;;;;;;;15.92;100.00;97608.22;2180206;81;21010;-83
2021/08/06 13:25:42;;;;;;;2.77;2.15;;;;;;;16.10;100.00;97619.58;2206142;81;21007;-83
2021/08/06 13:28:45;;;;;;;3.45;2.25;;;;;;;16.23;100.00;97619.75;2205767;81;20978;-83
2021/08/06 13:31:49;;;;;;;1.77;1.70;;;;;;;16.31;100.00;97628.07;2205529;81;21093;-84
2021/08/06 13:34:50;;;;;;;2.60;1.62;;;;;;;16.31;100.00;97620.67;2205303;81;21031;-85
2021/08/06 13:37:50;;;;;;;1.85;1.75;;;;;;;16.31;100.00;97627.27;2205736;81;21022;-85
2021/08/06 13:40:51;;;;;;;2.20;2.00;;;;;;;16.33;100.00;97624.66;2205351;81;21007;-83
2021/08/06 13:43:52;;;;;;;3.37;1.98;;;;;;;16.40;100.00;97619.22;2205519;81;21070;-86
2021/08/06 13:46:53;;;;;;;2.22;1.60;;;;;;;16.50;100.00;97623.31;2206030;81;20944;-87
2021/08/06 13:49:54;;;;;;;2.98;1.55;;;;;;;16.57;100.00;97616.55;2205836;81;21071;-83
2021/08/06 13:52:54;;;;;;;1.82;1.72;;;;;;;16.62;100.00;97631.13;2205306;81;20990;-80
2021/08/06 13:55:55;;;;;;;1.37;1.30;;;;;;;16.69;100.00;97637.87;2205283;81;21015;-80
2021/08/06 13:58:56;;;;;;;2.50;1.65;;;;;;;16.72;100.00;97645.30;2215242;80;21587;-86
2021/08/06 14:01:57;;;;;;;2.50;1.92;;;;;;;16.68;100.00;97653.45;2223186;80;21053;-80
2021/08/06 14:04:58;;;;;;;1.72;1.37;;;;;;;16.68;100.00;97649.98;2223835;80;21032;-87
2021/08/06 14:07:58;;;;;;;2.50;1.75;;;;;;;16.58;100.00;97653.28;2223796;80;20985;-82
2021/08/06 14:11:00;;;;;;;1.80;1.67;;;;;;;16.49;100.00;97656.06;2223805;80;21026;-83
2021/08/06 14:14:01;;;;;;;4.37;1.82;;;;;;;16.42;100.00;97657.55;2224522;80;21004;-84
2021/08/06 14:17:01;;;;;;;2.00;1.35;;;;;;;16.43;100.00;97662.31;2224228;80;20981;-86
2021/08/06 14:20:02;;;;;;;1.90;1.05;;;;;;;16.36;100.00;97662.98;2289665;77;21044;-90
2021/08/06 14:23:03;;;;;;;1.30;1.17;;;;;;;16.23;100.00;97691.06;2318728;77;20929;-86
2021/08/06 14:26:04;;;;;;;1.60;1.25;;;;;;;16.05;100.00;97697.38;2317539;77;21044;-86
2021/08/06 14:29:04;;;;;;;1.02;1.02;;;;;;;15.91;100.00;97690.30;2316014;77;20980;-86
2021/08/06 14:32:05;;;;;;;1.67;1.37;;;;;;;15.87;100.00;97697.07;2316417;77;20949;-83
2021/08/06 14:35:06;;;;;;;3.00;1.57;;;;;;;15.87;100.00;97697.07;2317139;77;21000;-85
2021/08/06 14:38:07;;;;;;;2.30;1.70;;;;;;;15.89;100.00;97704.23;2316779;77;21017;-85
2021/08/06 14:41:08;;;;;;;1.10;1.00;;;;;;;15.95;100.00;97708.56;2318737;77;20999;-89
2021/08/06 14:44:08;;;;;;;1.45;1.20;;;;;;;15.97;100.00;97715.72;2319513;77;20968;-87
2021/08/06 14:47:09;;;;;;;3.47;2.22;;;;;;;16.01;100.00;97710.78;2317081;77;21354;-85
2021/08/06 14:50:10;;;;;;;1.62;1.52;;;;;;;16.09;100.00;97724.89;2318214;77;20944;-83
2021/08/06 14:53:11;;;;;;;1.77;1.67;;;;;;;16.13;100.00;97728.67;2317722;77;20898;-86
2021/08/06 14:56:11;;;;;;;1.67;1.57;;;;;;;16.21;100.00;97737.52;2317436;77;21079;-85
2021/08/06 14:59:13;;;;;;;1.87;1.60;;;;;;;16.29;100.00;97733.69;2309927;77;21478;-83
2021/08/06 15:02:13;;;;;;;3.37;1.30;;;;;;;16.38;100.00;97739.66;2303575;77;21065;-84
2021/08/06 15:05:15;;;;;;;2.35;1.52;;;;;;;16.48;100.00;97742.98;2302588;77;20966;-85
2021/08/06 15:08:15;;;;;;;2.35;1.77;;;;;;;16.55;100.00;97743.63;2302422;77;21094;-83
2021/08/06 15:11:16;;;;;;;3.92;1.30;;;;;;;16.56;100.00;97746.55;2303301;77;21469;-85
2021/08/06 15:14:17;;;;;;;14.45;4.62;;;;;;;16.63;100.00;97756.41;2302004;77;21018;-86
2021/08/06 15:17:18;;;;;;;1.60;1.50;;;;;;;16.69;100.00;97747.55;2301983;77;21000;-85
2021/08/06 15:20:19;;;;;;;1.50;1.25;;;;;;;16.77;100.00;97748.47;2302058;77;20959;-85
2021/08/06 15:23:20;;;;;;;5.78;1.50;;;;;;;16.79;100.00;97745.58;2301925;77;20994;-85
2021/08/06 15:26:21;;;;;;;3.70;3.05;;;;;;;16.78;100.00;97757.99;2302043;77;21469;-84
2021/08/06 15:29:22;;;;;;;4.58;3.25;;;;;;;16.90;100.00;97759.73;2301867;77;21018;-86
2021/08/06 15:32:23;;;;;;;3.65;2.12;;;;;;;16.98;100.00;97759.33;2301818;77;20919;-85
2021/08/06 15:35:24;;;;;;;8.40;4.60;;;;;;;17.03;100.00;97754.12;2302014;77;21033;-86
2021/08/06 15:38:25;;;;;;;4.70;2.98;;;;;;;17.06;100.00;97771.61;2301503;77;21074;-86
2021/08/06 15:41:25;;;;;;;2.10;1.90;;;;;;;17.10;100.00;97765.33;2301631;77;21057;-85
2021/08/06 15:44:26;;;;;;;5.55;2.25;;;;;;;17.08;100.00;97767.91;2301652;77;21002;-85
2021/08/06 15:47:27;;;;;;;1.98;1.77;;;;;;;17.04;100.00;97763.65;2301526;77;20967;-85
2021/08/06 15:50:28;;;;;;;3.67;2.02;;;;;;;16.98;100.00;97767.25;2301660;77;21509;-85
2021/08/06 15:53:29;;;;;;;4.80;3.42;;;;;;;16.97;100.00;97774.91;2301551;77;21430;-84
2021/08/06 15:56:30;;;;;;;4.20;3.02;;;;;;;16.96;100.00;97771.99;2301571;77;20978;-83
2021/08/06 15:59:31;;;;;;;4.90;3.10;;;;;;;16.91;100.00;97770.58;2309427;76;21053;-84
2021/08/06 16:02:34;;;;;;;3.92;2.37;;;;;;;16.84;100.00;97768.13;2314457;77;21495;-86
2021/08/06 16:05:34;;;;;;;2.92;2.35;;;;;;;16.75;100.00;97770.91;2313778;76;20937;-84
2021/08/06 16:08:37;;;;;;;6.08;1.87;;;;;;;16.68;100.00;97769.74;2314556;77;20985;-81
2021/08/06 16:11:37;;;;;;;5.45;2.65;;;;;;;16.67;100.00;97763.34;2314645;77;20969;-83
2021/08/06 16:14:38;;;;;;;2.60;1.90;;;;;;;16.64;100.00;97763.81;2314749;77;21031;-84
2021/08/06 16:17:39;;;;;;;4.70;2.62;;;;;;;16.62;100.00;97763.26;2314939;77;21048;-85
2021/08/06 16:20:40;;;;;;;2.45;1.62;;;;;;;16.61;100.00;97760.34;2315167;77;21032;-84
2021/08/06 16:23:41;;;;;;;2.50;1.82;;;;;;;16.63;100.00;97766.98;2315458;77;21508;-87
2021/08/06 16:26:42;;;;;;;3.47;1.45;;;;;;;16.68;100.00;97764.45;2315373;77;21032;-88
2021/08/06 16:29:42;;;;;;;2.37;1.90;;;;;;;16.73;100.00;97765.87;2315409;77;20992;-87
2021/08/06 16:32:43;;;;;;;4.35;1.92;;;;;;;16.75;100.00;97773.55;2314842;77;21040;-85
2021/08/06 16:35:44;;;;;;;2.30;1.92;;;;;;;16.75;100.00;97773.03;2314907;77;20965;-85
2021/08/06 16:38:45;;;;;;;1.62;1.42;;;;;;;16.78;100.00;97777.82;2315040;77;21004;-85
2021/08/06 16:41:46;;;;;;;1.80;1.70;;;;;;;16.80;100.00;97771.48;2315005;77;20948;-84
2021/08/06 16:44:47;;;;;;;0.93;0.93;;;;;;;16.86;100.00;97773.17;2314974;77;21064;-86
2021/08/06 16:47:48;;;;;;;2.00;1.85;;;;;;;16.90;100.00;97764.50;2314893;77;21023;-86
2021/08/06 16:50:49;;;;;;;2.12;1.22;;;;;;;16.93;100.00;97759.27;2314668;77;21541;-86
2021/08/06 16:53:50;;;;;;;1.95;1.50;;;;;;;16.93;100.00;97761.91;2314777;77;20957;-86
2021/08/06 16:56:51;;;;;;;1.50;1.40;;;;;;;16.87;100.00;97761.55;2314641;77;21487;-86
2021/08/06 16:59:51;;;;;;;3.60;1.80;;;;;;;16.76;100.00;97761.41;2314637;77;21052;-86
2021/08/06 17:02:52;;;;;;;2.52;2.20;;;;;;;16.69;100.00;97756.80;2283606;77;21526;-84
2021/08/06 17:05:53;;;;;;;1.82;1.50;;;;;;;16.67;100.00;97759.38;2314828;77;20921;-85
2021/08/06 17:08:54;;;;;;;4.33;1.10;;;;;;;16.61;100.00;97751.09;2314939;77;21031;-85
2021/08/06 17:11:55;;;;;;;2.35;2.00;;;;;;;16.54;100.00;97767.09;2314535;77;21017;-84
2021/08/06 17:14:55;;;;;;;2.17;1.12;;;;;;;16.43;100.00;97766.14;2314665;77;21072;-86
2021/08/06 17:17:56;;;;;;;1.60;1.50;;;;;;;16.38;100.00;97766.59;2314368;77;21583;-86
2021/08/06 17:20:57;;;;;;;2.80;1.25;;;;;;;16.33;100.00;97760.70;2314605;77;20914;-86
2021/08/06 17:23:58;;;;;;;1.75;1.05;;;;;;;16.39;100.00;97765.03;2314794;77;21009;-85
2021/08/06 17:26:59;;;;;;;1.67;1.22;;;;;;;16.40;100.00;97767.95;2314517;77;21492;-85
2021/08/06 17:29:59;;;;;;;2.40;1.20;;;;;;;16.39;100.00;97763.71;2314696;77;20996;-83
2021/08/06 17:33:00;;;;;;;2.87;1.60;;;;;;;16.35;100.00;97758.61;2314689;77;20949;-85
2021/08/06 17:36:01;;;;;;;3.55;2.08;;;;;;;16.31;100.00;97765.42;2314802;77;20977;-85
2021/08/06 17:39:02;;;;;;;3.35;2.20;;;;;;;16.21;100.00;97762.09;2314706;77;21090;-84
2021/08/06 17:42:03;;;;;;;7.30;2.92;;;;;;;16.12;100.00;97768.00;2314574;77;20981;-85
2021/08/06 17:45:09;;;;;;;8.63;3.47;;;;;;;16.06;100.00;97760.50;2314636;77;21225;-85
2021/08/06 17:48:10;;;;;;;4.85;2.17;;;;;;;16.04;100.00;97765.74;2314628;77;21618;-85
2021/08/06 17:51:13;;;;;;;6.53;2.37;;;;;;;15.94;100.00;97771.64;2314632;77;21353;-86
2021/08/06 17:54:14;;;;;;;4.95;2.05;;;;;;;15.85;100.00;97763.82;2314825;77;20969;-85
2021/08/06 17:57:15;;;;;;;6.05;2.50;;;;;;;15.75;100.00;97768.39;2314596;77;21048;-85
2021/08/06 18:00:15;;;;;;;3.80;2.40;;;;;;;15.62;100.00;97767.33;2305095;77;21021;-86
2021/08/06 18:03:16;;;;;;;2.45;2.02;;;;;;;15.55;100.00;97769.30;2301997;77;21053;-86
2021/08/06 18:06:17;;;;;;;3.15;1.87;;;;;;;15.47;100.00;97766.50;2301597;77;20919;-86
2021/08/06 18:09:18;;;;;;;2.60;2.08;;;;;;;15.40;100.00;97772.42;2301209;77;21560;-84
2021/08/06 18:12:19;;;;;;;4.65;2.67;;;;;;;15.31;100.00;97778.57;2301372;77;21426;-86
2021/08/06 18:15:24;;;;;;;3.35;2.45;;;;;;;15.20;100.00;97779.91;2301337;77;21025;-85
2021/08/06 18:18:22;;;;;;;3.40;1.80;;;;;;;15.05;100.00;97784.33;2300853;77;21026;-85
2021/08/06 18:21:23;;;;;;;1.42;1.32;;;;;;;14.97;100.00;97787.31;2301432;77;21045;-85
2021/08/06 18:24:24;;;;;;;2.67;2.22;;;;;;;14.87;100.00;97795.80;2301340;77;21013;-86
2021/08/06 18:27:25;;;;;;;3.15;2.83;;;;;;;14.78;100.00;97796.64;2301371;77;20938;-86
2021/08/06 18:30:26;;;;;;;5.80;3.60;;;;;;;14.70;100.00;97797.50;2301434;77;21001;-87
2021/08/06 18:33:27;;;;;;;3.83;2.90;;;;;;;14.52;100.00;97798.39;2301379;77;20994;-86
2021/08/06 18:36:28;;;;;;;2.40;2.22;;;;;;;14.35;100.00;97798.72;2301360;77;20998;-86
2021/08/06 18:39:31;;;;;;;2.83;2.62;;;;;;;14.19;100.00;97800.98;2301743;77;21433;-87
2021/08/06 18:42:31;;;;;;;5.67;2.90;;;;;;;14.10;100.00;97812.06;2301043;77;21030;-86
2021/08/06 18:45:32;;;;;;;6.85;2.85;;;;;;;14.01;100.00;97822.61;2301235;77;21006;-86
2021/08/06 18:48:33;;;;;;;4.47;2.37;;;;;;;13.97;100.00;97822.23;2301367;77;21503;-86
2021/08/06 18:51:34;;;;;;;2.35;2.02;;;;;;;13.92;100.00;97825.55;2301177;77;21010;-86
2021/08/06 18:54:35;;;;;;;4.17;3.40;;;;;;;13.85;100.00;97835.34;2301173;77;21019;-86
2021/08/06 18:57:36;;;;;;;5.72;3.70;;;;;;;13.78;100.00;97831.98;2301448;77;21008;-87
2021/08/06 19:00:37;;;;;;;5.22;3.90;;;;;;;13.72;100.00;97838.66;2287791;76;21020;-86
2021/08/06 19:03:40;;;;;;;3.60;3.30;;;;;;;13.69;100.00;97833.82;2283285;77;21023;-85
2021/08/06 19:06:40;;;;;;;3.67;3.02;;;;;;;13.65;100.00;97833.47;2283620;76;21508;-84
2021/08/06 19:09:41;;;;;;;4.42;3.33;;;;;;;13.61;100.00;97834.91;2283101;77;20980;-85
2021/08/06 19:12:42;;;;;;;3.30;2.52;;;;;;;13.58;100.00;97834.05;2283127;77;21059;-87
2021/08/06 19:15:42;;;;;;;2.10;1.90;;;;;;;13.56;100.00;97839.53;2282939;77;21451;-85
2021/08/06 19:18:43;;;;;;;3.60;2.02;;;;;;;13.51;100.00;97840.69;2282969;78;20968;-86
2021/08/06 19:21:44;;;;;;;2.80;2.30;;;;;;;13.50;100.00;97847.48;2283141;78;21031;-86
2021/08/06 19:24:45;;;;;;;2.20;2.00;;;;;;;13.46;100.00;97845.02;2283317;78;20909;-86
2021/08/06 19:27:46;;;;;;;1.55;1.45;;;;;;;13.43;100.00;97845.44;2283586;77;20952;-85
2021/08/06 19:30:47;;;;;;;2.10;1.90;;;;;;;13.34;100.00;97855.44;2283344;78;21417;-86
2021/08/06 19:33:48;;;;;;;2.37;2.27;;;;;;;13.25;100.00;97850.97;2283327;77;20995;-86
2021/08/06 19:36:55;;;;;;;2.40;1.90;;;;;;;13.21;100.00;97848.48;2283492;77;21000;-87
2021/08/06 19:39:51;;;;;;;1.80;1.70;;;;;;;13.20;100.00;97848.20;2282407;78;21540;-85
2021/08/06 19:42:52;;;;;;;3.15;2.37;;;;;;;13.17;100.00;97845.19;2283481;78;20984;-86
2021/08/06 19:45:53;;;;;;;2.20;1.82;;;;;;;13.12;100.00;97841.88;2283548;78;20984;-86
2021/08/06 19:48:53;;;;;;;5.47;2.37;;;;;;;13.05;100.00;97845.88;2283507;77;20991;-85
2021/08/06 19:51:54;;;;;;;2.72;1.40;;;;;;;12.99;100.00;97844.64;2283801;77;21531;-86
2021/08/06 19:54:55;;;;;;;2.55;1.95;;;;;;;12.93;100.00;97849.43;2283643;78;20992;-86
2021/08/06 19:57:56;;;;;;;3.12;1.77;;;;;;;12.91;100.00;97850.96;2283507;78;21587;-86
2021/08/06 20:00:57;;;;;;;3.83;1.77;;;;;;;12.88;100.00;97850.56;2297833;77;21055;-86
2021/08/06 20:03:58;;;;;;;3.80;1.80;;;;;;;12.84;100.00;97853.34;2301446;77;21489;-86